Time;durP1;ratioP1;P1;durP2;ratioP2;P2;SDS_P1;SDS_P2;PMS_P1;PMS_P2;Temp;Humidity;BMP_temperature;BMP_pressure;BME280_temperature;BME280_humidity;BME280_pressure;Samples;Min_cycle;Max_cycle;Signal;HPM_P1;HPM_P2
2021/09/09 00:00:07;;;;;;;;;;;13.20;99.90;;;;;;5112399;28;20012;-71
2021/09/09 00:02:33;;;;;;;;;;;13.30;99.90;;;;;;5112620;28;19939;-71
2021/09/09 00:04:58;;;;;;;;;;;13.30;99.90;;;;;;5112364;28;19908;-71
2021/09/09 00:07:23;;;;;;;;;;;13.20;99.90;;;;;;5112078;28;20011;-71
2021/09/09 00:09:49;;;;;;;;;;;13.10;99.90;;;;;;5112197;28;19908;-71
2021/09/09 00:12:14;;;;;;;;;;;13.10;99.90;;;;;;5112129;28;19911;-71
2021/09/09 00:14:40;;;;;;;;;;;13.00;99.90;;;;;;5112272;28;19912;-71
2021/09/09 00:17:06;;;;;;;;;;;13.10;99.90;;;;;;5111825;28;19908;-71
2021/09/09 00:19:31;;;;;;;;;;;13.00;99.90;;;;;;5112161;28;20284;-71
2021/09/09 00:21:57;;;;;;;;;;;12.90;99.90;;;;;;5112130;28;20086;-71
2021/09/09 00:24:22;;;;;;;;;;;12.90;99.90;;;;;;5112002;28;20280;-71
2021/09/09 00:26:48;;;;;;;;;;;12.80;99.90;;;;;;5099682;28;20318;-70
2021/09/09 00:29:13;;;;;;;;;;;12.80;99.90;;;;;;5111868;28;19915;-71
2021/09/09 00:31:39;;;;;;;;;;;12.80;99.90;;;;;;5111945;28;19912;-71
2021/09/09 00:34:04;;;;;;;;;;;12.90;99.90;;;;;;5111896;28;19907;-71
2021/09/09 00:36:30;;;;;;;;;;;12.90;99.90;;;;;;5111589;28;19908;-71
2021/09/09 00:38:55;;;;;;;;;;;12.90;99.90;;;;;;5111837;28;20006;-71
2021/09/09 00:41:23;;;;;;;;;;;12.90;99.90;;;;;;5111918;28;19908;-71
2021/09/09 00:43:48;;;;;;;;;;;13.00;99.90;;;;;;5111702;28;20338;-71
2021/09/09 00:46:19;;;;;;;;;;;13.00;99.90;;;;;;5111333;28;19912;-71
2021/09/09 00:48:45;;;;;;;;;;;12.90;99.90;;;;;;5111887;28;19908;-71
2021/09/09 00:51:10;;;;;;;;;;;12.90;99.90;;;;;;5111588;28;19912;-71
2021/09/09 00:53:38;;;;;;;;;;;12.80;99.90;;;;;;5111771;28;19912;-71
2021/09/09 00:56:04;;;;;;;;;;;12.70;99.90;;;;;;5099401;28;19961;-71
2021/09/09 00:58:30;;;;;;;;;;;12.70;99.90;;;;;;5111855;28;19915;-70
2021/09/09 01:00:56;;;;;;;;;;;12.80;99.90;;;;;;5115949;28;20407;-71
2021/09/09 01:03:21;;;;;;;;;;;12.70;99.90;;;;;;5115819;28;19907;-71
2021/09/09 01:05:47;;;;;;;;;;;12.60;99.90;;;;;;5115828;28;19935;-71
2021/09/09 01:08:12;;;;;;;;;;;12.60;99.90;;;;;;5115421;28;19908;-70
2021/09/09 01:10:38;;;;;;;;;;;12.70;99.90;;;;;;5115720;28;19914;-70
2021/09/09 01:13:07;;;;;;;;;;;12.70;99.90;;;;;;5115469;28;19911;-71
2021/09/09 01:15:36;;;;;;;;;;;12.80;99.90;;;;;;5115790;28;19968;-70
2021/09/09 01:18:06;;;;;;;;;;;12.70;99.90;;;;;;5115239;28;20261;-71
2021/09/09 01:20:31;;;;;;;;;;;12.70;99.90;;;;;;5114314;28;19911;-71
2021/09/09 01:22:57;;;;;;;;;;;12.50;99.90;;;;;;5115410;28;19912;-70
2021/09/09 01:25:22;;;;;;;;;;;12.50;99.90;;;;;;5108556;28;19912;-71
2021/09/09 01:27:48;;;;;;;;;;;12.50;99.90;;;;;;5109766;28;19939;-71
2021/09/09 01:30:13;;;;;;;;;;;12.50;99.90;;;;;;5115260;28;19914;-71
2021/09/09 01:32:39;;;;;;;;;;;12.50;99.90;;;;;;5115196;28;20436;-71
2021/09/09 01:35:04;;;;;;;;;;;12.40;99.90;;;;;;5115282;28;19907;-71
2021/09/09 01:37:30;;;;;;;;;;;12.40;99.90;;;;;;5114729;28;20296;-71
2021/09/09 01:39:55;;;;;;;;;;;12.50;99.90;;;;;;5115063;28;19912;-71
2021/09/09 01:42:21;;;;;;;;;;;12.60;99.90;;;;;;5115124;28;20008;-71
2021/09/09 01:44:46;;;;;;;;;;;12.60;99.90;;;;;;5115141;28;20372;-71
2021/09/09 01:47:12;;;;;;;;;;;12.50;99.90;;;;;;5114644;28;19916;-70
2021/09/09 01:49:37;;;;;;;;;;;12.40;99.90;;;;;;5114914;28;20378;-71
2021/09/09 01:52:03;;;;;;;;;;;12.30;99.90;;;;;;5114774;28;19912;-71
2021/09/09 01:54:29;;;;;;;;;;;12.30;99.90;;;;;;5114860;28;19946;-71
2021/09/09 01:56:54;;;;;;;;;;;12.30;99.90;;;;;;5102411;28;19998;-71
2021/09/09 01:59:20;;;;;;;;;;;12.40;99.90;;;;;;5114595;28;19911;-70
2021/09/09 02:01:45;;;;;;;;;;;12.40;99.90;;;;;;5114724;28;20343;-71
2021/09/09 02:04:11;;;;;;;;;;;12.40;99.90;;;;;;5114782;28;20261;-70
2021/09/09 02:06:36;;;;;;;;;;;12.40;99.90;;;;;;5114314;28;19951;-70
2021/09/09 02:09:02;;;;;;;;;;;12.30;99.90;;;;;;5114131;28;20002;-70
2021/09/09 02:11:28;;;;;;;;;;;12.20;99.90;;;;;;5114146;28;20445;-70
2021/09/09 02:13:54;;;;;;;;;;;12.10;99.90;;;;;;5114571;28;19907;-71
2021/09/09 02:16:19;;;;;;;;;;;12.20;99.90;;;;;;5114133;28;20298;-70
2021/09/09 02:18:45;;;;;;;;;;;12.10;99.90;;;;;;5114496;28;19908;-70
2021/09/09 02:21:11;;;;;;;;;;;12.20;99.90;;;;;;5114168;28;19908;-71
2021/09/09 02:23:37;;;;;;;;;;;12.10;99.90;;;;;;5114772;28;20372;-70
2021/09/09 02:26:03;;;;;;;;;;;12.10;99.90;;;;;;5102059;28;19911;-71
2021/09/09 02:28:28;;;;;;;;;;;12.00;99.90;;;;;;5114038;28;20153;-71
2021/09/09 02:30:54;;;;;;;;;;;12.10;99.90;;;;;;5114152;28;20041;-71
2021/09/09 02:33:19;;;;;;;;;;;12.10;99.90;;;;;;5114037;28;20380;-71
2021/09/09 02:35:44;;;;;;;;;;;12.10;99.90;;;;;;5114101;28;19915;-70
2021/09/09 02:38:10;;;;;;;;;;;12.10;99.90;;;;;;5113547;28;19952;-70
2021/09/09 02:40:35;;;;;;;;;;;12.00;99.90;;;;;;5114007;28;19908;-70
2021/09/09 02:43:01;;;;;;;;;;;12.00;99.90;;;;;;5113848;28;19916;-70
2021/09/09 02:45:26;;;;;;;;;;;12.00;99.90;;;;;;5113325;28;19918;-71
2021/09/09 02:47:52;;;;;;;;;;;11.90;99.90;;;;;;5113765;28;20303;-71
2021/09/09 02:50:18;;;;;;;;;;;11.80;99.90;;;;;;5113698;28;19907;-70
2021/09/09 02:52:43;;;;;;;;;;;11.80;99.90;;;;;;5113443;28;19963;-71
2021/09/09 02:55:10;;;;;;;;;;;11.80;99.90;;;;;;5110693;28;19961;-70
2021/09/09 02:57:36;;;;;;;;;;;11.70;99.90;;;;;;5104550;28;19908;-70
2021/09/09 03:00:02;;;;;;;;;;;11.80;99.90;;;;;;5113397;28;20304;-70
2021/09/09 03:02:27;;;;;;;;;;;11.80;99.90;;;;;;5113508;28;20300;-70
2021/09/09 03:04:53;;;;;;;;;;;11.80;99.90;;;;;;5113544;28;19914;-70
2021/09/09 03:07:19;;;;;;;;;;;11.70;99.90;;;;;;5112873;28;19915;-70
2021/09/09 03:09:44;;;;;;;;;;;11.70;99.90;;;;;;5113239;28;19935;-70
2021/09/09 03:12:10;;;;;;;;;;;11.60;99.90;;;;;;5113132;28;20429;-70
2021/09/09 03:14:35;;;;;;;;;;;11.60;99.90;;;;;;5113308;28;19908;-70
2021/09/09 03:17:01;;;;;;;;;;;11.60;99.90;;;;;;5112867;28;19912;-70
2021/09/09 03:19:26;;;;;;;;;;;11.60;99.90;;;;;;5113074;28;19940;-70
2021/09/09 03:21:52;;;;;;;;;;;11.60;99.90;;;;;;5111985;28;19998;-70
2021/09/09 03:24:18;;;;;;;;;;;11.60;99.90;;;;;;5112951;28;19951;-70
2021/09/09 03:26:43;;;;;;;;;;;11.70;99.90;;;;;;5099379;28;19915;-70
2021/09/09 03:29:09;;;;;;;;;;;11.60;99.90;;;;;;5113103;28;19930;-70
2021/09/09 03:31:34;;;;;;;;;;;11.50;99.90;;;;;;5112909;28;20377;-70
2021/09/09 03:34:00;;;;;;;;;;;11.40;99.90;;;;;;5113113;28;20028;-70
2021/09/09 03:36:25;;;;;;;;;;;11.40;99.90;;;;;;5112583;28;19908;-71
2021/09/09 03:38:51;;;;;;;;;;;11.40;99.90;;;;;;5112629;28;19961;-70
2021/09/09 03:41:16;;;;;;;;;;;11.40;99.90;;;;;;5112788;28;19956;-71
2021/09/09 03:43:42;;;;;;;;;;;11.40;99.90;;;;;;5112956;28;20365;-71
2021/09/09 03:46:07;;;;;;;;;;;11.50;99.90;;;;;;5112362;28;19916;-70
2021/09/09 03:48:32;;;;;;;;;;;11.50;99.90;;;;;;5112687;28;19908;-70
2021/09/09 03:50:58;;;;;;;;;;;11.60;99.90;;;;;;5112570;28;20387;-70
2021/09/09 03:53:23;;;;;;;;;;;11.50;99.90;;;;;;5112651;28;19908;-70
2021/09/09 03:55:49;;;;;;;;;;;11.50;99.90;;;;;;5100416;28;20435;-70
2021/09/09 03:58:14;;;;;;;;;;;11.60;99.90;;;;;;5112274;28;19951;-70
2021/09/09 04:00:40;;;;;;;;;;;11.60;99.90;;;;;;5112722;28;19940;-70
2021/09/09 04:03:05;;;;;;;;;;;11.60;99.90;;;;;;5112553;28;19908;-70
2021/09/09 04:05:31;;;;;;;;;;;11.60;99.90;;;;;;5112349;28;20380;-70
2021/09/09 04:07:57;;;;;;;;;;;11.60;99.90;;;;;;5111952;28;19911;-70
2021/09/09 04:10:23;;;;;;;;;;;11.50;99.90;;;;;;5112387;28;20380;-70
2021/09/09 04:12:48;;;;;;;;;;;11.50;99.90;;;;;;5112130;28;19961;-70
2021/09/09 04:15:14;;;;;;;;;;;11.40;99.90;;;;;;5112296;28;19915;-70
2021/09/09 04:17:40;;;;;;;;;;;11.40;99.90;;;;;;5111868;28;19908;-70
2021/09/09 04:20:05;;;;;;;;;;;11.40;99.90;;;;;;5112102;28;19999;-70
2021/09/09 04:22:31;;;;;;;;;;;11.50;99.90;;;;;;5111934;28;19907;-70
2021/09/09 04:24:58;;;;;;;;;;;11.50;99.90;;;;;;5112200;28;19912;-70
2021/09/09 04:27:24;;;;;;;;;;;11.50;99.90;;;;;;5099368;28;19907;-70
2021/09/09 04:29:50;;;;;;;;;;;11.50;99.90;;;;;;5112067;28;19915;-70
2021/09/09 04:32:16;;;;;;;;;;;11.60;99.90;;;;;;5111712;28;19911;-70
2021/09/09 04:34:41;;;;;;;;;;;11.50;99.90;;;;;;5112042;28;19907;-70
2021/09/09 04:37:07;;;;;;;;;;;11.40;99.90;;;;;;5111479;28;19918;-70
2021/09/09 04:39:32;;;;;;;;;;;11.40;99.90;;;;;;5111997;28;19986;-70
2021/09/09 04:41:58;;;;;;;;;;;11.30;99.90;;;;;;5111841;28;20066;-70
2021/09/09 04:44:24;;;;;;;;;;;11.40;99.90;;;;;;5111870;28;19953;-70
2021/09/09 04:46:49;;;;;;;;;;;11.30;99.90;;;;;;5111362;28;19919;-70
2021/09/09 04:49:15;;;;;;;;;;;11.30;99.90;;;;;;5111805;28;19908;-71
2021/09/09 04:51:40;;;;;;;;;;;11.30;99.90;;;;;;5111594;28;19998;-70
2021/09/09 04:54:06;;;;;;;;;;;11.40;99.90;;;;;;5111827;28;20532;-70
2021/09/09 04:56:31;;;;;;;;;;;11.30;99.90;;;;;;5107405;28;19908;-70
2021/09/09 04:58:57;;;;;;;;;;;11.30;99.90;;;;;;5111691;28;20265;-70
2021/09/09 05:01:24;;;;;;;;;;;11.30;99.90;;;;;;5111673;28;19953;-70
2021/09/09 05:03:49;;;;;;;;;;;11.20;99.90;;;;;;5111665;28;19908;-70
2021/09/09 05:06:15;;;;;;;;;;;11.30;99.90;;;;;;5111158;28;19915;-70
2021/09/09 05:08:40;;;;;;;;;;;11.40;99.90;;;;;;5111686;28;19915;-70
2021/09/09 05:11:10;;;;;;;;;;;11.50;99.90;;;;;;5111505;28;19934;-70
2021/09/09 05:13:36;;;;;;;;;;;11.50;99.90;;;;;;5111559;28;19908;-70
2021/09/09 05:16:01;;;;;;;;;;;11.50;99.90;;;;;;5111258;28;19953;-70
2021/09/09 05:18:27;;;;;;;;;;;11.50;99.90;;;;;;5111419;28;19912;-70
2021/09/09 05:20:52;;;;;;;;;;;11.40;99.90;;;;;;5111497;28;19912;-70
2021/09/09 05:23:18;;;;;;;;;;;11.40;99.90;;;;;;5111565;28;19908;-70
2021/09/09 05:25:43;;;;;;;;;;;11.40;99.90;;;;;;5105813;28;19955;-71
2021/09/09 05:28:09;;;;;;;;;;;11.40;99.90;;;;;;5111332;28;19908;-70
2021/09/09 05:30:34;;;;;;;;;;;11.60;99.90;;;;;;5111444;28;19953;-70
2021/09/09 05:33:00;;;;;;;;;;;11.60;99.90;;;;;;5111343;28;20007;-70
2021/09/09 05:35:25;;;;;;;;;;;11.60;99.90;;;;;;5111337;28;20280;-70
2021/09/09 05:37:51;;;;;;;;;;;11.60;99.90;;;;;;5111002;28;19911;-70
2021/09/09 05:40:16;;;;;;;;;;;11.70;99.90;;;;;;5111773;28;19915;-70
2021/09/09 05:42:42;;;;;;;;;;;11.80;99.90;;;;;;5111220;28;19999;-70
2021/09/09 05:45:08;;;;;;;;;;;11.80;99.90;;;;;;5112755;28;19908;-70
2021/09/09 05:47:34;;;;;;;;;;;11.90;99.90;;;;;;5114505;28;20391;-70
2021/09/09 05:49:59;;;;;;;;;;;12.00;99.90;;;;;;5115148;28;19907;-70
2021/09/09 05:52:25;;;;;;;;;;;12.10;99.90;;;;;;5115110;28;20617;-71
2021/09/09 05:54:50;;;;;;;;;;;12.30;99.90;;;;;;5114921;28;19954;-70
2021/09/09 05:57:16;;;;;;;;;;;12.40;99.90;;;;;;5110253;28;19912;-70
2021/09/09 05:59:41;;;;;;;;;;;12.60;99.90;;;;;;5114747;28;19915;-70
2021/09/09 06:02:12;;;;;;;;;;;12.70;99.90;;;;;;5114432;28;19961;-70
2021/09/09 06:04:38;;;;;;;;;;;13.00;99.90;;;;;;5114734;28;19943;-70
2021/09/09 06:07:03;;;;;;;;;;;13.60;99.90;;;;;;5114455;28;19962;-70
2021/09/09 06:09:29;;;;;;;;;;;14.50;99.90;;;;;;5114815;28;19912;-70
2021/09/09 06:11:54;;;;;;;;;;;14.80;99.90;;;;;;5114528;28;19911;-70
2021/09/09 06:14:20;;;;;;;;;;;15.00;99.90;;;;;;5114722;28;19922;-71
2021/09/09 06:16:45;;;;;;;;;;;15.40;99.90;;;;;;5114039;28;20317;-70
2021/09/09 06:19:11;;;;;;;;;;;15.50;99.90;;;;;;5114417;28;19908;-70
2021/09/09 06:21:36;;;;;;;;;;;15.80;99.90;;;;;;5114308;28;19912;-70
2021/09/09 06:24:05;;;;;;;;;;;16.10;99.90;;;;;;5114452;28;20007;-70
2021/09/09 06:26:30;;;;;;;;;;;16.50;99.90;;;;;;5109468;28;20382;-70
2021/09/09 06:28:56;;;;;;;;;;;16.70;99.90;;;;;;5114212;28;20023;-71
2021/09/09 06:31:21;;;;;;;;;;;16.90;99.90;;;;;;5113802;28;19941;-70
2021/09/09 06:33:47;;;;;;;;;;;17.10;99.90;;;;;;5094979;28;19970;-70
2021/09/09 06:36:12;;;;;;;;;;;17.20;99.90;;;;;;5113429;28;19907;-70
2021/09/09 06:38:38;;;;;;;;;;;17.50;99.90;;;;;;5114169;28;19951;-70
2021/09/09 06:41:03;;;;;;;;;;;17.40;99.90;;;;;;5113874;28;19911;-71
2021/09/09 06:43:29;;;;;;;;;;;17.50;99.90;;;;;;5099081;28;19961;-71
2021/09/09 06:45:54;;;;;;;;;;;17.70;99.90;;;;;;5105611;28;19911;-71
2021/09/09 06:48:20;;;;;;;;;;;17.90;99.90;;;;;;5112904;28;19915;-70
2021/09/09 06:50:45;;;;;;;;;;;18.00;99.90;;;;;;5113708;28;19915;-71
2021/09/09 06:53:11;;;;;;;;;;;18.30;99.90;;;;;;5113400;28;20010;-71
2021/09/09 06:55:36;;;;;;;;;;;18.60;99.90;;;;;;5108682;28;19918;-71
2021/09/09 06:58:03;;;;;;;;;;;18.70;99.90;;;;;;5091705;28;19908;-70
2021/09/09 07:00:28;;;;;;;;;;;18.70;99.90;;;;;;5092992;28;19908;-70
2021/09/09 07:02:54;;;;;;;;;;;18.70;99.90;;;;;;5091795;28;19915;-70
2021/09/09 07:05:20;;;;;;;;;;;18.80;99.90;;;;;;5093283;28;19915;-71
2021/09/09 07:07:45;;;;;;;;;;;18.70;99.90;;;;;;5093109;28;20387;-71
2021/09/09 07:10:11;;;;;;;;;;;18.70;99.90;;;;;;5107004;28;20006;-71
2021/09/09 07:12:37;;;;;;;;;;;18.50;99.90;;;;;;5107968;28;20424;-71
2021/09/09 07:15:03;;;;;;;;;;;18.50;99.90;;;;;;5091598;28;19940;-71
2021/09/09 07:17:28;;;;;;;;;;;18.60;99.90;;;;;;5092563;28;19970;-71
2021/09/09 07:19:54;;;;;;;;;;;18.70;99.90;;;;;;5091600;28;20054;-71
2021/09/09 07:22:19;;;;;;;;;;;18.70;99.90;;;;;;5092822;28;19908;-70
2021/09/09 07:24:45;;;;;;;;;;;18.80;99.90;;;;;;5092956;28;20011;-71
2021/09/09 07:27:10;;;;;;;;;;;18.90;99.90;;;;;;5090240;28;19912;-71
2021/09/09 07:29:36;;;;;;;;;;;19.00;99.90;;;;;;5092400;28;20352;-71
2021/09/09 07:32:01;;;;;;;;;;;19.10;99.90;;;;;;5092532;28;20368;-71
2021/09/09 07:34:27;;;;;;;;;;;19.50;99.90;;;;;;5092809;28;19920;-71
2021/09/09 07:36:53;;;;;;;;;;;21.10;99.90;;;;;;5092479;28;19915;-71
2021/09/09 07:39:19;;;;;;;;;;;22.00;99.90;;;;;;5092605;28;20406;-71
2021/09/09 07:41:45;;;;;;;;;;;22.90;99.90;;;;;;5092423;28;19997;-71
2021/09/09 07:44:11;;;;;;;;;;;23.40;99.90;;;;;;5092367;28;19948;-71
2021/09/09 07:46:36;;;;;;;;;;;24.20;99.90;;;;;;5102074;28;19926;-72
2021/09/09 07:49:02;;;;;;;;;;;25.00;99.90;;;;;;5112887;28;19943;-71
2021/09/09 07:51:27;;;;;;;;;;;25.30;99.90;;;;;;5112581;28;19930;-71
2021/09/09 07:53:55;;;;;;;;;;;24.50;99.90;;;;;;5112486;28;19998;-71
2021/09/09 07:56:22;;;;;;;;;;;23.50;99.90;;;;;;5107186;28;20213;-71
2021/09/09 07:58:49;;;;;;;;;;;22.80;99.90;;;;;;5111953;28;19961;-71
2021/09/09 08:01:18;;;;;;;;;;;22.70;99.90;;;;;;5103242;28;19998;-71
2021/09/09 08:03:44;;;;;;;;;;;22.80;99.90;;;;;;5099274;28;19908;-71
2021/09/09 08:06:09;;;;;;;;;;;22.40;99.90;;;;;;5111920;28;19915;-72
2021/09/09 08:08:35;;;;;;;;;;;21.70;99.90;;;;;;5111717;28;19972;-71
2021/09/09 08:11:00;;;;;;;;;;;21.10;99.90;;;;;;5112007;28;20003;-71
2021/09/09 08:13:25;;;;;;;;;;;22.40;99.90;;;;;;5101709;28;19908;-72
2021/09/09 08:15:51;;;;;;;;;;;24.00;99.90;;;;;;5111805;28;19959;-71
2021/09/09 08:18:16;;;;;;;;;;;23.90;99.90;;;;;;5111768;28;20295;-72
2021/09/09 08:20:42;;;;;;;;;;;24.80;99.90;;;;;;5112218;28;19973;-72
2021/09/09 08:23:07;;;;;;;;;;;25.30;99.90;;;;;;5112059;28;19950;-71
2021/09/09 08:25:33;;;;;;;;;;;26.20;99.90;;;;;;5109895;28;19908;-72
2021/09/09 08:27:58;;;;;;;;;;;26.90;99.90;;;;;;5109527;28;19908;-71
2021/09/09 08:30:24;;;;;;;;;;;25.90;99.90;;;;;;5111855;28;19943;-72
2021/09/09 08:32:49;;;;;;;;;;;24.70;99.90;;;;;;5112345;28;20252;-72
2021/09/09 08:35:15;;;;;;;;;;;25.70;99.90;;;;;;5112201;28;19908;-73
2021/09/09 08:37:40;;;;;;;;;;;25.50;99.90;;;;;;5111757;28;19973;-72
2021/09/09 08:40:09;;;;;;;;;;;26.50;99.90;;;;;;5112060;28;19915;-72
2021/09/09 08:42:36;;;;;;;;;;;26.90;99.90;;;;;;5111502;28;20281;-72
2021/09/09 08:45:02;;;;;;;;;;;26.90;99.90;;;;;;5111831;28;19908;-72
2021/09/09 08:47:28;;;;;;;;;;;27.40;99.90;;;;;;5111215;28;19915;-72
2021/09/09 08:49:53;;;;;;;;;;;28.00;99.90;;;;;;5111420;28;20348;-72
2021/09/09 08:52:19;;;;;;;;;;;28.10;98.90;;;;;;5111452;28;19937;-72
2021/09/09 08:54:44;;;;;;;;;;;28.40;99.90;;;;;;5111535;28;19954;-72
2021/09/09 08:57:10;;;;;;;;;;;28.90;98.50;;;;;;5100360;28;19950;-72
2021/09/09 08:59:35;;;;;;;;;;;29.00;98.20;;;;;;5110994;28;19914;-72
2021/09/09 09:02:02;;;;;;;;;;;29.80;97.10;;;;;;5111359;28;19907;-72
2021/09/09 09:04:28;;;;;;;;;;;29.80;97.00;;;;;;5090489;28;20469;-72
2021/09/09 09:06:54;;;;;;;;;;;29.80;97.00;;;;;;5090659;28;19915;-72
2021/09/09 09:09:21;;;;;;;;;;;29.70;97.80;;;;;;5091008;28;20364;-72
2021/09/09 09:11:49;;;;;;;;;;;30.10;97.20;;;;;;5090843;28;20361;-72
2021/09/09 09:14:18;;;;;;;;;;;30.50;96.10;;;;;;5093992;28;19908;-72
2021/09/09 09:17:04;;;;;;;;;;;30.50;96.00;;;;;;5110929;28;19908;-72
2021/09/09 09:19:30;;;;;;;;;;;30.40;94.70;;;;;;5110882;28;19908;-71
2021/09/09 09:22:01;;;;;;;;;;;30.70;95.00;;;;;;5115309;28;19998;-72
2021/09/09 09:24:32;;;;;;;;;;;31.40;94.10;;;;;;5115142;28;19907;-72
2021/09/09 09:27:12;;;;;;;;;;;31.80;92.30;;;;;;5101534;28;19908;-72
2021/09/09 09:29:38;;;;;;;;;;;31.20;92.90;;;;;;5094864;28;19912;-72
2021/09/09 09:32:12;;;;;;;;;;;31.40;92.70;;;;;;5094604;28;19922;-72
2021/09/09 09:34:38;;;;;;;;;;;31.80;91.80;;;;;;5094711;28;19919;-72
2021/09/09 09:37:04;;;;;;;;;;;31.60;91.50;;;;;;5094083;28;20455;-72
2021/09/09 09:39:29;;;;;;;;;;;30.40;92.50;;;;;;5094520;28;19940;-72
2021/09/09 09:41:58;;;;;;;;;;;29.30;93.70;;;;;;5094463;28;20410;-72
2021/09/09 09:44:27;;;;;;;;;;;27.50;95.80;;;;;;5094826;28;19914;-72
2021/09/09 09:46:53;;;;;;;;;;;26.90;97.00;;;;;;5106720;28;19916;-72
2021/09/09 09:49:29;;;;;;;;;;;28.30;95.30;;;;;;5114830;28;19915;-72
2021/09/09 09:52:00;;;;;;;;;;;29.80;94.90;;;;;;5114665;28;19916;-72
2021/09/09 09:54:26;;;;;;;;;;;28.40;94.70;;;;;;5114759;28;19907;-72
2021/09/09 09:56:52;;;;;;;;;;;29.40;92.60;;;;;;5109588;28;19942;-71
2021/09/09 09:59:18;;;;;;;;;;;30.20;92.20;;;;;;5114520;28;19908;-72
2021/09/09 10:01:44;;;;;;;;;;;30.40;91.70;;;;;;5103016;28;19968;-72
2021/09/09 10:04:14;;;;;;;;;;;28.70;93.20;;;;;;5103665;28;20369;-72
2021/09/09 10:06:40;;;;;;;;;;;29.30;92.80;;;;;;5113905;28;19930;-72
2021/09/09 10:09:06;;;;;;;;;;;27.50;94.10;;;;;;5114368;28;19951;-72
2021/09/09 10:11:32;;;;;;;;;;;27.00;95.60;;;;;;5114239;28;19973;-72
2021/09/09 10:13:59;;;;;;;;;;;28.50;93.50;;;;;;5107638;28;19912;-72
2021/09/09 10:16:27;;;;;;;;;;;30.70;91.70;;;;;;5113833;28;19915;-72
2021/09/09 10:18:52;;;;;;;;;;;32.10;91.00;;;;;;5114005;28;21058;-72
2021/09/09 10:21:37;;;;;;;;;;;30.30;92.00;;;;;;5114180;28;19943;-72
2021/09/09 10:24:13;;;;;;;;;;;30.50;91.90;;;;;;5114166;28;19908;-72
2021/09/09 10:26:39;;;;;;;;;;;29.80;92.40;;;;;;5109312;28;20002;-72
2021/09/09 10:29:08;;;;;;;;;;;30.20;91.70;;;;;;5113548;28;19915;-72
2021/09/09 10:31:43;;;;;;;;;;;30.30;90.60;;;;;;5113740;28;19916;-72
2021/09/09 10:34:09;;;;;;;;;;;28.70;93.20;;;;;;5114664;28;19946;-72
2021/09/09 10:36:37;;;;;;;;;;;29.60;93.30;;;;;;5114917;28;19908;-72
2021/09/09 10:39:02;;;;;;;;;;;31.10;91.00;;;;;;5114452;28;20518;-72
2021/09/09 10:41:28;;;;;;;;;;;33.10;89.00;;;;;;5113837;28;20002;-71
2021/09/09 10:43:58;;;;;;;;;;;32.30;88.50;;;;;;5113978;28;20426;-71
2021/09/09 10:46:28;;;;;;;;;;;32.70;87.50;;;;;;5114334;28;19927;-71
2021/09/09 10:49:04;;;;;;;;;;;29.00;91.30;;;;;;5115003;28;19908;-71
2021/09/09 10:51:30;;;;;;;;;;;27.40;94.30;;;;;;5114421;28;19912;-71
2021/09/09 10:53:56;;;;;;;;;;;27.40;95.00;;;;;;5113935;28;19969;-71
2021/09/09 10:56:26;;;;;;;;;;;26.50;95.80;;;;;;5108929;28;19918;-71
2021/09/09 10:59:15;;;;;;;;;;;26.70;95.10;;;;;;5113518;28;19915;-71
2021/09/09 11:01:44;;;;;;;;;;;25.80;96.10;;;;;;5100110;28;19908;-71
2021/09/09 11:04:24;;;;;;;;;;;25.20;97.80;;;;;;5107520;28;19919;-71
2021/09/09 11:06:50;;;;;;;;;;;27.80;95.90;;;;;;5113111;28;19908;-71
2021/09/09 11:09:16;;;;;;;;;;;31.90;91.00;;;;;;5113445;28;19914;-71
2021/09/09 11:11:46;;;;;;;;;;;33.80;85.50;;;;;;5113461;28;19972;-71
2021/09/09 11:14:12;;;;;;;;;;;34.60;85.20;;;;;;5107471;28;19907;-71
2021/09/09 11:16:38;;;;;;;;;;;34.60;81.50;;;;;;5113010;28;19964;-71
2021/09/09 11:19:04;;;;;;;;;;;34.50;79.00;;;;;;5113184;28;19908;-71
2021/09/09 11:21:35;;;;;;;;;;;33.20;79.10;;;;;;5095140;28;19915;-71
2021/09/09 11:24:03;;;;;;;;;;;33.00;82.10;;;;;;5113325;28;20006;-72
2021/09/09 11:26:29;;;;;;;;;;;34.10;78.10;;;;;;5108615;28;19907;-72
2021/09/09 11:28:55;;;;;;;;;;;34.80;79.30;;;;;;5112983;28;19907;-72
2021/09/09 11:31:22;;;;;;;;;;;34.50;74.10;;;;;;5112890;28;20280;-72
2021/09/09 11:33:51;;;;;;;;;;;34.90;76.20;;;;;;5112806;28;20372;-72
2021/09/09 11:36:17;;;;;;;;;;;32.80;79.10;;;;;;5112901;28;20006;-72
2021/09/09 11:38:43;;;;;;;;;;;31.80;81.70;;;;;;5103511;28;19908;-72
2021/09/09 11:41:10;;;;;;;;;;;32.00;83.30;;;;;;5092425;28;19915;-72
2021/09/09 11:43:36;;;;;;;;;;;31.30;80.50;;;;;;5091908;28;20396;-72
2021/09/09 11:46:01;;;;;;;;;;;32.00;81.90;;;;;;5092089;28;20387;-72
2021/09/09 11:48:27;;;;;;;;;;;34.20;75.70;;;;;;5092223;28;19916;-72
2021/09/09 11:50:52;;;;;;;;;;;33.30;73.20;;;;;;5092519;28;19915;-72
2021/09/09 11:53:26;;;;;;;;;;;30.20;83.60;;;;;;5092136;28;19919;-72
2021/09/09 11:55:51;;;;;;;;;;;31.00;83.80;;;;;;5092700;28;19908;-72
2021/09/09 11:58:30;;;;;;;;;;;33.20;79.00;;;;;;5091794;28;19919;-72
2021/09/09 12:00:56;;;;;;;;;;;33.80;75.90;;;;;;5090998;28;19912;-72
2021/09/09 12:03:22;;;;;;;;;;;31.20;80.60;;;;;;5090880;28;19908;-72
2021/09/09 12:05:50;;;;;;;;;;;29.00;81.20;;;;;;5101497;28;20006;-72
2021/09/09 12:08:15;;;;;;;;;;;27.90;88.40;;;;;;5112023;28;19908;-72
2021/09/09 12:10:41;;;;;;;;;;;27.40;88.70;;;;;;5112410;28;19915;-72
2021/09/09 12:13:09;;;;;;;;;;;27.60;85.90;;;;;;5102451;28;19912;-72
2021/09/09 12:15:35;;;;;;;;;;;27.50;89.90;;;;;;5091493;28;19912;-73
2021/09/09 12:18:08;;;;;;;;;;;27.20;89.50;;;;;;5091669;28;19915;-72
2021/09/09 12:20:34;;;;;;;;;;;27.00;90.70;;;;;;5089478;28;20203;-73
2021/09/09 12:23:00;;;;;;;;;;;26.80;91.00;;;;;;5089455;28;20299;-73
2021/09/09 12:25:29;;;;;;;;;;;27.10;90.00;;;;;;5090828;28;20430;-72
2021/09/09 12:28:07;;;;;;;;;;;27.10;90.10;;;;;;5086404;28;19908;-72
2021/09/09 12:30:32;;;;;;;;;;;26.90;91.90;;;;;;5086960;28;20373;-72
2021/09/09 12:32:58;;;;;;;;;;;27.00;91.50;;;;;;5091617;28;20004;-72
2021/09/09 12:35:25;;;;;;;;;;;26.90;91.70;;;;;;5091875;28;20297;-72
2021/09/09 12:38:07;;;;;;;;;;;27.20;90.90;;;;;;5090071;28;19908;-72
2021/09/09 12:40:37;;;;;;;;;;;27.00;90.90;;;;;;5090108;28;19950;-72
2021/09/09 12:43:18;;;;;;;;;;;26.70;92.30;;;;;;5091746;28;19909;-72
2021/09/09 12:45:44;;;;;;;;;;;26.30;91.40;;;;;;5094353;28;19911;-71
2021/09/09 12:48:09;;;;;;;;;;;26.20;92.10;;;;;;5111614;28;20440;-72
2021/09/09 12:50:35;;;;;;;;;;;25.90;91.30;;;;;;5111717;28;19999;-72
2021/09/09 12:53:01;;;;;;;;;;;25.80;92.40;;;;;;5111443;28;19916;-72
2021/09/09 12:55:26;;;;;;;;;;;25.70;92.60;;;;;;5118206;28;20002;-72
2021/09/09 12:57:52;;;;;;;;;;;26.10;92.50;;;;;;5115928;28;19961;-72
2021/09/09 13:00:17;;;;;;;;;;;25.80;92.90;;;;;;5104844;28;20023;-72
2021/09/09 13:02:42;;;;;;;;;;;25.60;93.10;;;;;;5109306;28;19909;-72
2021/09/09 13:05:08;;;;;;;;;;;25.50;93.60;;;;;;5118588;28;20307;-72
2021/09/09 13:07:34;;;;;;;;;;;25.50;93.00;;;;;;5118160;28;19914;-72
2021/09/09 13:10:01;;;;;;;;;;;25.40;92.90;;;;;;5118485;28;20318;-72
2021/09/09 13:12:27;;;;;;;;;;;25.20;92.80;;;;;;5114323;28;19912;-72
2021/09/09 13:14:53;;;;;;;;;;;25.30;92.80;;;;;;5116391;28;20375;-72
2021/09/09 13:17:19;;;;;;;;;;;25.20;92.70;;;;;;5118184;28;20364;-72
2021/09/09 13:19:45;;;;;;;;;;;25.20;93.10;;;;;;5118234;28;19952;-72
2021/09/09 13:22:10;;;;;;;;;;;25.30;92.50;;;;;;5117832;28;19912;-72
2021/09/09 13:24:36;;;;;;;;;;;25.30;92.60;;;;;;5109311;28;19943;-72
2021/09/09 13:27:01;;;;;;;;;;;25.20;92.40;;;;;;5116673;28;20049;-72
2021/09/09 13:29:27;;;;;;;;;;;25.40;92.40;;;;;;5118045;28;19956;-72
2021/09/09 13:31:52;;;;;;;;;;;25.50;93.30;;;;;;5118405;28;19926;-72
2021/09/09 13:34:18;;;;;;;;;;;25.50;91.50;;;;;;5118132;28;19911;-73
2021/09/09 13:36:44;;;;;;;;;;;25.50;90.90;;;;;;5117293;28;19908;-72
2021/09/09 13:39:09;;;;;;;;;;;25.40;91.50;;;;;;5117871;28;19908;-72
2021/09/09 13:41:36;;;;;;;;;;;25.20;92.20;;;;;;5118156;28;20388;-72
2021/09/09 13:44:04;;;;;;;;;;;25.20;92.90;;;;;;5118384;28;19953;-72
2021/09/09 13:46:30;;;;;;;;;;;25.20;91.90;;;;;;5117695;28;19916;-72
2021/09/09 13:48:56;;;;;;;;;;;25.10;91.40;;;;;;5117968;28;19908;-72
2021/09/09 13:51:22;;;;;;;;;;;25.30;92.30;;;;;;5117573;28;20015;-72
2021/09/09 13:53:47;;;;;;;;;;;25.30;92.60;;;;;;5117973;28;19912;-72
2021/09/09 13:56:16;;;;;;;;;;;25.30;91.20;;;;;;5108659;28;20018;-72
2021/09/09 13:58:42;;;;;;;;;;;25.50;92.60;;;;;;5117872;28;19930;-72
2021/09/09 14:01:08;;;;;;;;;;;25.70;90.50;;;;;;5110288;28;20447;-72
2021/09/09 14:03:33;;;;;;;;;;;25.60;91.50;;;;;;5104209;28;19916;-72
2021/09/09 14:05:59;;;;;;;;;;;25.80;93.30;;;;;;5113873;28;20287;-72
2021/09/09 14:08:24;;;;;;;;;;;25.70;92.60;;;;;;5114563;28;19908;-72
2021/09/09 14:10:50;;;;;;;;;;;25.70;92.60;;;;;;5114709;28;20387;-72